Nearby METAR Reports

KLWM - Lawrence,MA, USA
Distance from station: NE 12mi, 19km
Updated: Tue, 15-Oct-2019 4:54am EDT
Clear
Clear
 Wind from W
Wind: W 6 mph , 9 km/h
Temperature: 48°F , 9°C
Wind Chill: 45°F , 7°C
Dew Point: 41°F , 5°C
Humidity: 76%
Barometer: 30.08 inHg , 1018.6 hPa
Clouds: Clear
Visibility: 10 miles , 16 km
2019/10/15 08:54 KLWM 150854Z AUTO 28005KT 10SM CLR 09/05 A3008 RMK AO2 SLP184 T00890050 53015
KBED - Bedford,MA, USA
Distance from station: SSE 12mi, 19km
Updated: Tue, 15-Oct-2019 4:51am EDT
Clear
Clear
 Wind from W
Wind: W 5 mph , 7 km/h
Temperature: 45°F , 7°C
Wind Chill: 42°F , 6°C
Dew Point: 39°F , 4°C
Humidity: 81%
Barometer: 30.05 inHg , 1017.6 hPa
Clouds: Clear
Visibility: 10 miles , 16 km
2019/10/15 08:51 KBED 150851Z AUTO 26004KT 10SM CLR 07/04 A3005 RMK AO2 SLP190 T00720039 51016

Metar display script from Saratoga-Weather.org